Time;durP1;ratioP1;P1;durP2;ratioP2;P2;SDS_P1;SDS_P2;PMS_P1;PMS_P2;Temp;Humidity;BMP_temperature;BMP_pressure;BME280_temperature;BME280_humidity;BME280_pressure;Samples;Min_cycle;Max_cycle;Signal;HPM_P1;HPM_P2
2023/02/14 00:03:00;;;;;;;;;;;;;;;0.28;100.00;97492.78;10523794;28;1895;-69
2023/02/14 00:08:02;;;;;;;;;;;;;;;0.25;100.00;97498.38;10527827;28;1954;-69
2023/02/14 00:13:05;;;;;;;;;;;;;;;0.12;100.00;97498.88;10524591;28;2039;-70
2023/02/14 00:18:07;;;;;;;;;;;;;;;-0.07;100.00;97499.22;10527264;28;2164;-70
2023/02/14 00:23:09;;;;;;;;;;;;;;;-0.40;100.00;97501.81;10523257;28;1982;-68
2023/02/14 00:28:12;;;;;;;;;;;;;;;-0.27;100.00;97507.47;10525494;28;1987;-70
2023/02/14 00:33:14;;;;;;;;;;;;;;;-0.27;100.00;97502.16;10531412;28;2104;-70
2023/02/14 00:38:17;;;;;;;;;;;;;;;-0.49;100.00;97500.16;10524330;28;1959;-70
2023/02/14 00:43:19;;;;;;;;;;;;;;;-0.69;100.00;97498.81;10521658;28;1992;-70
2023/02/14 00:48:21;;;;;;;;;;;;;;;-0.64;100.00;97499.94;10524986;28;1962;-69
2023/02/14 00:53:24;;;;;;;;;;;;;;;-0.59;100.00;97499.47;10523420;28;1935;-69
2023/02/14 00:58:26;;;;;;;;;;;;;;;-0.66;100.00;97511.66;10527995;28;2135;-71
2023/02/14 01:03:29;;;;;;;;;;;;;;;-0.79;100.00;97519.22;10526545;28;1928;-67
2023/02/14 01:08:31;;;;;;;;;;;;;;;-1.01;100.00;97516.19;10528358;28;2101;-68
2023/02/14 01:13:34;;;;;;;;;;;;;;;-1.07;100.00;97521.25;10526985;28;2087;-69
2023/02/14 01:18:36;;;;;;;;;;;;;;;-0.88;100.00;97513.91;10520718;28;2010;-71
2023/02/14 01:23:38;;;;;;;;;;;;;;;-0.61;100.00;97506.75;10540618;28;1971;-70
2023/02/14 01:28:41;;;;;;;;;;;;;;;-0.48;100.00;97514.19;10523718;28;1914;-69
2023/02/14 01:33:43;;;;;;;;;;;;;;;-0.56;100.00;97515.00;10526188;28;2030;-70
2023/02/14 01:38:46;;;;;;;;;;;;;;;-0.97;100.00;97521.94;10521720;28;1978;-69
2023/02/14 01:43:48;;;;;;;;;;;;;;;-0.78;100.00;97520.88;10529552;28;2253;-70
2023/02/14 01:48:51;;;;;;;;;;;;;;;-0.58;100.00;97516.97;10536807;28;2023;-69
2023/02/14 01:53:53;;;;;;;;;;;;;;;-0.64;100.00;97523.72;10537035;28;1966;-70
2023/02/14 01:58:56;;;;;;;;;;;;;;;-0.78;100.00;97520.88;10524204;28;1997;-69
2023/02/14 02:03:58;;;;;;;;;;;;;;;-0.69;100.00;97515.47;10524333;28;2038;-70
2023/02/14 02:09:01;;;;;;;;;;;;;;;-1.18;100.00;97523.19;10530863;28;1990;-70
2023/02/14 02:14:03;;;;;;;;;;;;;;;-1.48;100.00;97519.19;10526886;28;1954;-68
2023/02/14 02:19:05;;;;;;;;;;;;;;;-1.67;100.00;97530.78;10537817;28;1982;-69
2023/02/14 02:24:08;;;;;;;;;;;;;;;-1.70;100.00;97515.28;10530438;28;1962;-68
2023/02/14 02:29:10;;;;;;;;;;;;;;;-1.78;100.00;97517.88;10529760;28;1991;-70
2023/02/14 02:34:13;;;;;;;;;;;;;;;-1.61;100.00;97512.69;10540727;28;1916;-71
2023/02/14 02:39:15;;;;;;;;;;;;;;;-1.20;100.00;97511.13;10539110;28;1879;-69
2023/02/14 02:44:18;;;;;;;;;;;;;;;-1.03;100.00;97504.94;10519237;28;2073;-68
2023/02/14 02:53:01;;;;;;;;;;;;;;;-0.99;100.00;97492.25;10542684;28;1922;-70
2023/02/14 02:54:42;;;;;;;;;;;;;;;-1.28;100.00;97485.50;10525524;28;2029;-69
2023/02/14 02:59:45;;;;;;;;;;;;;;;-1.41;100.00;97478.03;10534230;28;1927;-72
2023/02/14 03:04:53;;;;;;;;;;;;;;;-1.30;100.00;97497.22;10512858;28;2424;-69
2023/02/14 03:09:56;;;;;;;;;;;;;;;-1.50;100.00;97486.88;10534045;28;2088;-69
2023/02/14 03:14:59;;;;;;;;;;;;;;;-1.48;100.00;97476.19;10530136;28;2078;-70
2023/02/14 03:20:13;;;;;;;;;;;;;;;-1.33;100.00;97487.81;10534080;28;1981;-70
2023/02/14 03:25:16;;;;;;;;;;;;;;;-1.22;100.00;97500.72;10525027;28;1990;-75
2023/02/14 03:30:18;;;;;;;;;;;;;;;-1.48;100.00;97486.72;10527626;28;1958;-70
2023/02/14 03:35:21;;;;;;;;;;;;;;;-1.78;100.00;97486.22;10538067;28;2121;-69
2023/02/14 03:40:23;;;;;;;;;;;;;;;-1.95;100.00;97479.19;10524358;28;2551;-69
2023/02/14 03:45:26;;;;;;;;;;;;;;;-1.93;100.00;97501.75;10532378;28;1947;-70
2023/02/14 03:50:29;;;;;;;;;;;;;;;-1.75;100.00;97495.63;10530798;28;2436;-69
2023/02/14 03:55:31;;;;;;;;;;;;;;;-1.86;100.00;97514.31;10524144;28;1967;-68
2023/02/14 04:00:33;;;;;;;;;;;;;;;-2.01;100.00;97506.13;10529592;28;1967;-68
2023/02/14 04:05:37;;;;;;;;;;;;;;;-1.79;100.00;97508.28;10508214;28;1979;-70
2023/02/14 04:10:42;;;;;;;;;;;;;;;-1.56;100.00;97498.06;10532762;28;1981;-69
2023/02/14 04:15:44;;;;;;;;;;;;;;;-1.74;100.00;97499.91;10520391;28;2048;-69
2023/02/14 04:20:46;;;;;;;;;;;;;;;-1.73;100.00;97501.56;10524812;28;1963;-69
2023/02/14 04:25:49;;;;;;;;;;;;;;;-1.73;100.00;97497.13;10527272;28;2029;-69
2023/02/14 04:30:51;;;;;;;;;;;;;;;-1.55;100.00;97501.53;10525720;28;1988;-70
2023/02/14 04:35:53;;;;;;;;;;;;;;;-1.23;100.00;97485.88;10536829;28;1973;-69
2023/02/14 04:40:55;;;;;;;;;;;;;;;-1.15;100.00;97493.81;10526772;28;2085;-70
2023/02/14 04:45:58;;;;;;;;;;;;;;;-0.92;100.00;97490.63;10526098;28;2010;-70
2023/02/14 04:51:01;;;;;;;;;;;;;;;-1.02;100.00;97477.53;10531660;28;2009;-69
2023/02/14 04:56:03;;;;;;;;;;;;;;;-1.15;100.00;97474.53;10523064;28;1931;-70
2023/02/14 05:01:06;;;;;;;;;;;;;;;-0.96;100.00;97461.06;10527888;28;1946;-68
2023/02/14 05:06:08;;;;;;;;;;;;;;;-1.06;100.00;97475.41;10525651;28;1962;-70
2023/02/14 05:11:11;;;;;;;;;;;;;;;-0.90;100.00;97459.59;10528025;28;2021;-70
2023/02/14 05:16:13;;;;;;;;;;;;;;;-0.85;100.00;97455.50;10527775;28;2234;-68
2023/02/14 05:21:16;;;;;;;;;;;;;;;-0.80;100.00;97444.47;10528525;28;2080;-69
2023/02/14 05:26:18;;;;;;;;;;;;;;;-1.03;100.00;97449.50;10535587;28;1995;-69
2023/02/14 05:31:20;;;;;;;;;;;;;;;-1.07;100.00;97448.19;10540545;28;2042;-70
2023/02/14 05:36:23;;;;;;;;;;;;;;;-1.04;100.00;97439.09;10530471;28;1971;-69
2023/02/14 05:41:26;;;;;;;;;;;;;;;-1.02;100.00;97445.03;10541388;28;1492;-70
2023/02/14 05:46:28;;;;;;;;;;;;;;;-1.00;100.00;97454.47;10550035;28;1906;-71
2023/02/14 05:51:30;;;;;;;;;;;;;;;-1.12;100.00;97461.03;10538219;28;1970;-71
2023/02/14 05:56:33;;;;;;;;;;;;;;;-1.07;100.00;97473.75;10539306;28;1958;-70
2023/02/14 06:01:35;;;;;;;;;;;;;;;-0.97;100.00;97458.59;10533034;28;2065;-69
2023/02/14 06:06:37;;;;;;;;;;;;;;;-0.99;100.00;97466.69;10532189;28;2062;-69
2023/02/14 06:11:40;;;;;;;;;;;;;;;-0.93;100.00;97468.69;10529496;28;2103;-70
2023/02/14 06:16:42;;;;;;;;;;;;;;;-1.12;100.00;97480.31;10530777;28;1978;-69
2023/02/14 06:21:45;;;;;;;;;;;;;;;-0.94;100.00;97477.59;10527395;28;2161;-69
2023/02/14 06:26:47;;;;;;;;;;;;;;;-1.10;100.00;97470.44;10519624;28;2022;-70
2023/02/14 06:31:49;;;;;;;;;;;;;;;-0.96;100.00;97476.09;10532631;28;1997;-70
2023/02/14 06:36:52;;;;;;;;;;;;;;;-1.05;100.00;97484.97;10531640;28;1946;-73
2023/02/14 06:41:54;;;;;;;;;;;;;;;-0.92;100.00;97483.53;10535387;28;1951;-70
2023/02/14 06:46:56;;;;;;;;;;;;;;;-0.94;100.00;97482.06;10525303;28;2025;-69
2023/02/14 06:51:59;;;;;;;;;;;;;;;-1.25;100.00;97479.94;10530210;28;2033;-68
2023/02/14 06:57:02;;;;;;;;;;;;;;;-1.23;100.00;97474.50;10527017;28;1975;-69
2023/02/14 07:02:04;;;;;;;;;;;;;;;-1.16;100.00;97478.97;10530848;28;2014;-70
2023/02/14 07:07:06;;;;;;;;;;;;;;;-1.09;100.00;97476.53;10527401;28;2030;-68
2023/02/14 07:12:09;;;;;;;;;;;;;;;-0.94;100.00;97479.41;10536133;28;1915;-70
2023/02/14 07:17:11;;;;;;;;;;;;;;;-0.92;100.00;97474.78;10526937;28;1964;-69
2023/02/14 07:22:13;;;;;;;;;;;;;;;-0.59;100.00;97473.06;10522523;28;2002;-69
2023/02/14 07:27:16;;;;;;;;;;;;;;;-0.43;100.00;97474.91;10524058;28;2267;-70
2023/02/14 07:32:18;;;;;;;;;;;;;;;-0.31;100.00;97470.97;10501146;28;2101;-72
2023/02/14 07:37:21;;;;;;;;;;;;;;;-0.36;100.00;97458.25;10521557;28;2022;-71
2023/02/14 07:42:23;;;;;;;;;;;;;;;-0.32;100.00;97454.28;10524231;28;1974;-69
2023/02/14 07:47:26;;;;;;;;;;;;;;;0.08;100.00;97436.78;10502467;28;2007;-69
2023/02/14 07:52:28;;;;;;;;;;;;;;;0.17;100.00;97434.94;10527564;28;2215;-77
2023/02/14 07:57:31;;;;;;;;;;;;;;;0.29;100.00;97438.88;10529517;28;1958;-72
2023/02/14 08:02:34;;;;;;;;;;;;;;;0.36;100.00;97439.03;10526468;28;2043;-76
2023/02/14 08:07:36;;;;;;;;;;;;;;;0.88;100.00;97426.13;10528203;28;1918;-76
2023/02/14 08:17:59;;;;;;;;;;;;;;;0.81;100.00;97414.56;10518137;28;1941;-70
2023/02/14 08:23:01;;;;;;;;;;;;;;;1.09;100.00;97404.38;10525684;28;1986;-70
2023/02/14 08:28:04;;;;;;;;;;;;;;;1.43;100.00;97416.41;10532525;28;1955;-71
2023/02/14 08:33:06;;;;;;;;;;;;;;;1.24;100.00;97415.84;10509803;28;1947;-72
2023/02/14 08:38:09;;;;;;;;;;;;;;;1.31;100.00;97413.31;10522651;28;1974;-70
2023/02/14 08:43:11;;;;;;;;;;;;;;;1.20;100.00;97405.78;10520172;28;1962;-71
2023/02/14 08:48:14;;;;;;;;;;;;;;;0.98;100.00;97421.47;10517943;28;1966;-70
2023/02/14 08:53:16;;;;;;;;;;;;;;;0.52;100.00;97421.31;10516840;28;1982;-72
2023/02/14 08:58:18;;;;;;;;;;;;;;;0.51;100.00;97430.25;10520057;28;2063;-70
2023/02/14 09:03:21;;;;;;;;;;;;;;;0.74;100.00;97437.44;10522269;28;1962;-71
2023/02/14 09:08:24;;;;;;;;;;;;;;;0.87;100.00;97435.06;10520469;28;2046;-70
2023/02/14 09:13:26;;;;;;;;;;;;;;;1.26;100.00;97440.34;10526573;28;1990;-70
2023/02/14 09:18:28;;;;;;;;;;;;;;;1.30;100.00;97441.66;10523325;28;1923;-72
2023/02/14 09:23:31;;;;;;;;;;;;;;;1.28;100.00;97445.47;10519136;28;2054;-69
2023/02/14 09:28:33;;;;;;;;;;;;;;;0.84;100.00;97435.44;10523817;28;1984;-71
2023/02/14 09:33:36;;;;;;;;;;;;;;;1.46;100.00;97429.28;10521077;28;2104;-71
2023/02/14 09:38:38;;;;;;;;;;;;;;;1.53;100.00;97430.25;10522315;28;1911;-71
2023/02/14 09:43:40;;;;;;;;;;;;;;;1.25;100.00;97424.63;10519350;28;1986;-71
2023/02/14 09:48:43;;;;;;;;;;;;;;;1.54;100.00;97422.13;10520620;28;2066;-72
2023/02/14 09:53:45;;;;;;;;;;;;;;;1.58;100.00;97423.41;10525666;28;2404;-70
2023/02/14 09:58:48;;;;;;;;;;;;;;;1.84;100.00;97417.75;10522273;28;2136;-70
2023/02/14 10:03:50;;;;;;;;;;;;;;;1.89;100.00;97419.88;10532813;28;1979;-71
2023/02/14 10:08:54;;;;;;;;;;;;;;;1.81;100.00;97425.25;10530077;28;1982;-72
2023/02/14 10:13:56;;;;;;;;;;;;;;;1.78;100.00;97417.63;10530247;28;1966;-73
2023/02/14 10:18:58;;;;;;;;;;;;;;;2.03;100.00;97403.16;10531154;28;1958;-70
2023/02/14 10:24:01;;;;;;;;;;;;;;;2.01;100.00;97407.81;10525190;28;2002;-71
2023/02/14 10:29:03;;;;;;;;;;;;;;;1.76;100.00;97409.03;10526563;28;2043;-71
2023/02/14 10:34:06;;;;;;;;;;;;;;;1.35;100.00;97401.38;10527584;28;1938;-70
2023/02/14 10:39:08;;;;;;;;;;;;;;;1.54;100.00;97413.34;10529770;28;1911;-71
2023/02/14 10:44:12;;;;;;;;;;;;;;;1.61;100.00;97396.56;10522266;28;2042;-70
2023/02/14 10:49:14;;;;;;;;;;;;;;;1.20;100.00;97397.81;10532397;28;2069;-70
2023/02/14 10:54:17;;;;;;;;;;;;;;;1.32;100.00;97391.13;10550410;28;1968;-70
2023/02/14 10:59:20;;;;;;;;;;;;;;;1.38;100.00;97389.59;10531719;28;1993;-71
2023/02/14 11:04:23;;;;;;;;;;;;;;;1.59;100.00;97377.38;10529497;28;1958;-70
2023/02/14 11:09:25;;;;;;;;;;;;;;;1.46;100.00;97376.28;10529241;28;1943;-71
2023/02/14 11:14:28;;;;;;;;;;;;;;;1.40;100.00;97375.19;10524872;28;2073;-71
2023/02/14 11:19:31;;;;;;;;;;;;;;;1.56;100.00;97367.09;10529643;28;1942;-71
2023/02/14 11:24:36;;;;;;;;;;;;;;;1.32;100.00;97356.69;10525842;28;1942;-70
2023/02/14 11:29:38;;;;;;;;;;;;;;;1.55;100.00;97343.44;10534958;28;1923;-70
2023/02/14 11:34:41;;;;;;;;;;;;;;;1.21;100.00;97341.19;10525099;28;2246;-70
2023/02/14 11:39:43;;;;;;;;;;;;;;;1.41;100.00;97326.50;10523595;28;2244;-70
2023/02/14 11:44:45;;;;;;;;;;;;;;;1.28;100.00;97326.28;10532923;28;2026;-70
2023/02/14 11:49:48;;;;;;;;;;;;;;;1.45;100.00;97324.28;10528542;28;1981;-71
2023/02/14 11:54:50;;;;;;;;;;;;;;;1.68;100.00;97316.31;10529901;28;2275;-71
2023/02/14 11:59:53;;;;;;;;;;;;;;;1.78;100.00;97311.56;10525231;28;1974;-70
2023/02/14 12:04:55;;;;;;;;;;;;;;;1.67;100.00;97304.09;10527345;28;1926;-71
2023/02/14 12:09:58;;;;;;;;;;;;;;;1.93;100.00;97301.81;10525800;28;2075;-71
2023/02/14 12:15:01;;;;;;;;;;;;;;;1.87;100.00;97286.63;10527681;28;1920;-70
2023/02/14 12:20:04;;;;;;;;;;;;;;;2.04;100.00;97289.94;10528962;28;1963;-71
2023/02/14 12:25:07;;;;;;;;;;;;;;;2.11;100.00;97281.06;10517055;28;1974;-76
2023/02/14 12:30:11;;;;;;;;;;;;;;;2.38;100.00;97276.94;10527399;28;1983;-74
2023/02/14 12:35:13;;;;;;;;;;;;;;;2.25;100.00;97275.94;10524775;28;1942;-75
2023/02/14 12:40:16;;;;;;;;;;;;;;;2.52;100.00;97267.28;10524807;28;1935;-73
2023/02/14 12:45:18;;;;;;;;;;;;;;;2.48;100.00;97273.16;10528958;28;1879;-71
2023/02/14 12:50:21;;;;;;;;;;;;;;;2.55;100.00;97261.63;10521409;28;2096;-71
2023/02/14 12:55:23;;;;;;;;;;;;;;;2.51;100.00;97255.03;10521100;28;2207;-71
2023/02/14 13:00:25;;;;;;;;;;;;;;;2.39;100.00;97257.34;10514304;28;1959;-71
2023/02/14 13:05:28;;;;;;;;;;;;;;;2.34;100.00;97254.41;10523770;28;2006;-72
2023/02/14 13:10:30;;;;;;;;;;;;;;;2.42;100.00;97250.84;10529755;28;1962;-70
2023/02/14 13:15:32;;;;;;;;;;;;;;;2.54;100.00;97232.59;10525193;28;2068;-71
2023/02/14 13:20:35;;;;;;;;;;;;;;;2.62;100.00;97225.34;10518597;28;1958;-71
2023/02/14 13:25:39;;;;;;;;;;;;;;;2.70;100.00;97225.22;10520633;28;2109;-70
2023/02/14 13:30:41;;;;;;;;;;;;;;;2.81;100.00;97217.78;10523854;28;1927;-71
2023/02/14 13:35:44;;;;;;;;;;;;;;;2.83;100.00;97210.44;10522495;28;2007;-71
2023/02/14 13:40:46;;;;;;;;;;;;;;;2.87;100.00;97217.03;10511884;28;1954;-72
2023/02/14 13:45:49;;;;;;;;;;;;;;;2.86;100.00;97215.34;10527674;28;1935;-71
2023/02/14 13:50:51;;;;;;;;;;;;;;;2.77;100.00;97211.19;10529571;28;1985;-70
2023/02/14 13:55:54;;;;;;;;;;;;;;;2.74;100.00;97219.56;10531979;28;1962;-71
2023/02/14 14:00:57;;;;;;;;;;;;;;;2.61;100.00;97207.78;10529195;28;1966;-70
2023/02/14 14:05:59;;;;;;;;;;;;;;;2.31;100.00;97207.03;10530137;28;1903;-70
2023/02/14 14:11:02;;;;;;;;;;;;;;;2.41;100.00;97214.69;10518777;28;1934;-71
2023/02/14 14:16:05;;;;;;;;;;;;;;;2.42;100.00;97198.59;10530784;28;1946;-70
2023/02/14 14:21:07;;;;;;;;;;;;;;;2.40;100.00;97192.63;10531199;28;1990;-71
2023/02/14 14:26:09;;;;;;;;;;;;;;;2.14;100.00;97202.94;10530245;28;2062;-71
2023/02/14 14:31:12;;;;;;;;;;;;;;;2.04;100.00;97200.59;10532708;28;2136;-70
2023/02/14 14:36:15;;;;;;;;;;;;;;;1.99;100.00;97197.66;10534836;28;1918;-71
2023/02/14 14:41:17;;;;;;;;;;;;;;;1.86;100.00;97192.19;10531330;28;1962;-74
2023/02/14 14:46:20;;;;;;;;;;;;;;;1.80;100.00;97195.56;10504289;28;1926;-69
2023/02/14 14:51:22;;;;;;;;;;;;;;;1.83;100.00;97190.72;10528892;28;2172;-69
2023/02/14 14:56:25;;;;;;;;;;;;;;;1.94;100.00;97184.13;10519263;28;2007;-71
2023/02/14 15:01:27;;;;;;;;;;;;;;;1.87;100.00;97184.03;10509291;28;2009;-70
2023/02/14 15:06:30;;;;;;;;;;;;;;;1.82;100.00;97177.66;10529357;28;2109;-70
2023/02/14 15:16:52;;;;;;;;;;;;;;;1.59;100.00;97185.69;10528654;28;2162;-70
2023/02/14 15:21:55;;;;;;;;;;;;;;;1.61;100.00;97179.22;10529636;28;1963;-71
2023/02/14 15:26:57;;;;;;;;;;;;;;;1.56;100.00;97181.59;10528614;28;1962;-70
2023/02/14 15:32:00;;;;;;;;;;;;;;;1.61;100.00;97184.50;10525148;28;1978;-71
2023/02/14 15:37:05;;;;;;;;;;;;;;;1.45;100.00;97195.28;10529125;28;1900;-70
2023/02/14 15:42:08;;;;;;;;;;;;;;;1.35;100.00;97192.91;10508169;28;2132;-71
2023/02/14 15:47:11;;;;;;;;;;;;;;;1.23;100.00;97196.16;10524707;28;1911;-71
2023/02/14 15:52:13;;;;;;;;;;;;;;;1.08;100.00;97199.63;10519929;28;1978;-70
2023/02/14 15:57:16;;;;;;;;;;;;;;;0.96;100.00;97194.94;10525260;28;1986;-70
2023/02/14 16:02:18;;;;;;;;;;;;;;;0.82;100.00;97197.31;10531761;28;1899;-74
2023/02/14 16:07:21;;;;;;;;;;;;;;;0.70;100.00;97201.41;10513807;28;1947;-78
2023/02/14 16:12:23;;;;;;;;;;;;;;;0.46;100.00;97206.88;10524320;28;2003;-77
2023/02/14 16:17:26;;;;;;;;;;;;;;;0.23;100.00;97209.47;10507052;28;1958;-76
2023/02/14 16:22:30;;;;;;;;;;;;;;;0.11;100.00;97211.66;10531614;28;2213;-74
2023/02/14 16:27:33;;;;;;;;;;;;;;;0.07;100.00;97205.09;10529475;28;2032;-74
2023/02/14 16:32:37;;;;;;;;;;;;;;;0.05;100.00;97214.19;10525919;28;2006;-73
2023/02/14 16:37:39;;;;;;;;;;;;;;;0.01;100.00;97210.25;10530316;28;2399;-76
2023/02/14 16:42:42;;;;;;;;;;;;;;;0.07;100.00;97214.84;10527881;28;1966;-77
2023/02/14 16:47:45;;;;;;;;;;;;;;;0.17;100.00;97220.72;10526599;28;2046;-75
2023/02/14 16:52:48;;;;;;;;;;;;;;;0.20;100.00;97220.41;10524348;28;1941;-75
2023/02/14 16:57:50;;;;;;;;;;;;;;;0.10;100.00;97217.97;10528985;28;1950;-75
2023/02/14 17:03:03;;;;;;;;;;;;;;;-0.07;100.00;97222.47;10518787;28;1940;-74
2023/02/14 17:08:05;;;;;;;;;;;;;;;-0.12;100.00;97226.66;10523457;28;1911;-74
2023/02/14 17:13:08;;;;;;;;;;;;;;;-0.32;100.00;97228.84;10529797;28;2120;-73
2023/02/14 17:18:10;;;;;;;;;;;;;;;-0.45;100.00;97224.09;10524040;28;2042;-73
2023/02/14 17:23:13;;;;;;;;;;;;;;;-0.25;100.00;97228.97;10524252;28;1982;-73
2023/02/14 17:28:15;;;;;;;;;;;;;;;-0.20;100.00;97234.59;10522355;28;2051;-73
2023/02/14 17:33:18;;;;;;;;;;;;;;;-0.39;100.00;97233.16;10522225;28;1939;-76
2023/02/14 17:38:21;;;;;;;;;;;;;;;-0.40;100.00;97231.50;10522227;28;1959;-72
2023/02/14 17:43:24;;;;;;;;;;;;;;;-0.34;100.00;97233.47;10523477;28;2141;-73
2023/02/14 17:48:26;;;;;;;;;;;;;;;-0.24;100.00;97236.75;10520661;28;1999;-74
2023/02/14 17:53:28;;;;;;;;;;;;;;;-0.17;100.00;97240.38;10523708;28;1933;-73
2023/02/14 17:58:31;;;;;;;;;;;;;;;-0.24;100.00;97239.41;10501958;28;2038;-73
2023/02/14 18:03:34;;;;;;;;;;;;;;;-0.24;100.00;97234.13;10521463;28;1923;-73
2023/02/14 18:08:36;;;;;;;;;;;;;;;-0.21;100.00;97228.47;10530728;28;1990;-73
2023/02/14 18:13:39;;;;;;;;;;;;;;;-0.49;100.00;97229.91;10523151;28;1993;-73
2023/02/14 18:18:41;;;;;;;;;;;;;;;-0.64;100.00;97227.09;10519392;28;1990;-73
2023/02/14 18:23:44;;;;;;;;;;;;;;;-0.58;100.00;97221.97;10518889;28;1958;-74
2023/02/14 18:28:46;;;;;;;;;;;;;;;-0.57;100.00;97222.81;10528345;28;1966;-74
2023/02/14 18:33:49;;;;;;;;;;;;;;;-0.52;100.00;97219.66;10523456;28;2294;-73
2023/02/14 18:38:51;;;;;;;;;;;;;;;-0.49;100.00;97214.03;10528365;28;2188;-73
2023/02/14 18:43:53;;;;;;;;;;;;;;;-0.50;100.00;97215.03;10526834;28;1966;-73
2023/02/14 18:48:56;;;;;;;;;;;;;;;-0.44;100.00;97209.91;10527537;28;2086;-75
2023/02/14 18:53:58;;;;;;;;;;;;;;;-0.42;100.00;97215.00;10522622;28;1919;-74
2023/02/14 18:59:00;;;;;;;;;;;;;;;-0.55;100.00;97211.09;10527595;28;1760;-76
2023/02/14 19:04:04;;;;;;;;;;;;;;;-0.44;100.00;97206.44;10525521;28;1903;-73
2023/02/14 19:09:07;;;;;;;;;;;;;;;-0.49;100.00;97200.84;10530308;28;2005;-75
2023/02/14 19:14:09;;;;;;;;;;;;;;;-0.57;100.00;97193.75;10532812;28;1980;-74
2023/02/14 19:19:12;;;;;;;;;;;;;;;-0.52;100.00;97190.59;10523538;28;1954;-74
2023/02/14 19:24:15;;;;;;;;;;;;;;;-0.55;100.00;97189.13;10525199;28;1978;-76
2023/02/14 19:29:17;;;;;;;;;;;;;;;-0.81;100.00;97202.56;10545043;27;1950;-74
2023/02/14 19:34:20;;;;;;;;;;;;;;;-0.95;100.00;97197.97;10524965;28;2001;-74
2023/02/14 19:39:23;;;;;;;;;;;;;;;-0.88;100.00;97183.09;10527769;28;2018;-75
2023/02/14 19:44:27;;;;;;;;;;;;;;;-0.96;100.00;97180.44;10527301;28;1995;-75
2023/02/14 19:49:30;;;;;;;;;;;;;;;-0.74;100.00;97179.75;10525193;28;2086;-74
2023/02/14 19:54:33;;;;;;;;;;;;;;;-0.95;100.00;97172.38;10527390;28;1934;-75
2023/02/14 19:59:35;;;;;;;;;;;;;;;-0.79;100.00;97174.16;10527813;28;1970;-74
2023/02/14 20:04:38;;;;;;;;;;;;;;;-0.97;100.00;97168.25;10520625;28;1967;-75
2023/02/14 20:09:41;;;;;;;;;;;;;;;-1.04;100.00;97164.63;10528070;28;2145;-75
2023/02/14 20:14:44;;;;;;;;;;;;;;;-0.95;100.00;97167.09;10525911;28;1905;-77
2023/02/14 20:19:53;;;;;;;;;;;;;;;-0.82;100.00;97169.22;10527108;28;1954;-75
2023/02/14 20:24:56;;;;;;;;;;;;;;;-0.82;100.00;97162.13;10532768;28;1754;-75
2023/02/14 20:29:59;;;;;;;;;;;;;;;-0.78;100.00;97162.59;10526042;28;1743;-75
2023/02/14 20:35:03;;;;;;;;;;;;;;;-0.68;100.00;97163.25;10526436;28;1978;-76
2023/02/14 20:40:08;;;;;;;;;;;;;;;-0.78;100.00;97152.03;10525821;28;2065;-76
2023/02/14 20:45:11;;;;;;;;;;;;;;;-0.90;100.00;97148.91;10518327;28;1970;-75
2023/02/14 20:50:14;;;;;;;;;;;;;;;-1.09;100.00;97147.47;10501995;28;1980;-74
2023/02/14 20:55:17;;;;;;;;;;;;;;;-1.41;100.00;97144.84;10527759;28;1998;-76
2023/02/14 21:00:19;;;;;;;;;;;;;;;-1.51;100.00;97139.75;10525117;28;1989;-75
2023/02/14 21:05:22;;;;;;;;;;;;;;;-1.60;100.00;97127.53;10532511;28;2110;-75
2023/02/14 21:10:24;;;;;;;;;;;;;;;-1.31;100.00;97123.59;10524625;28;2201;-74
2023/02/14 21:15:27;;;;;;;;;;;;;;;-1.06;100.00;97127.84;10523872;28;2125;-75
2023/02/14 21:20:30;;;;;;;;;;;;;;;-1.05;100.00;97123.41;10521498;28;1973;-75
2023/02/14 21:25:32;;;;;;;;;;;;;;;-1.18;100.00;97127.38;10529125;28;1927;-77
2023/02/14 21:30:35;;;;;;;;;;;;;;;-0.98;100.00;97119.09;10530364;28;1966;-74
2023/02/14 21:35:37;;;;;;;;;;;;;;;-1.34;100.00;97124.72;10524764;28;2023;-74
2023/02/14 21:40:39;;;;;;;;;;;;;;;-1.30;100.00;97120.78;10535826;28;2090;-75
2023/02/14 21:45:55;;;;;;;;;;;;;;;-1.21;100.00;97117.16;10526557;28;1966;-77
2023/02/14 21:50:58;;;;;;;;;;;;;;;-1.20;100.00;97108.25;10520503;28;1970;-74
2023/02/14 21:56:01;;;;;;;;;;;;;;;-1.10;100.00;97111.50;10521086;28;1970;-73
2023/02/14 22:01:03;;;;;;;;;;;;;;;-1.20;100.00;97104.78;10531914;28;1954;-76
2023/02/14 22:06:08;;;;;;;;;;;;;;;-1.25;100.00;97097.38;10526272;28;1963;-75
2023/02/14 22:11:11;;;;;;;;;;;;;;;-1.15;100.00;97094.53;10529869;28;2022;-75
2023/02/14 22:16:13;;;;;;;;;;;;;;;-1.31;100.00;97087.47;10527467;28;2103;-75
2023/02/14 22:21:16;;;;;;;;;;;;;;;-1.26;100.00;97077.25;10547126;27;2047;-75
2023/02/14 22:26:18;;;;;;;;;;;;;;;-1.50;100.00;97082.56;10531506;28;2124;-74
2023/02/14 22:31:21;;;;;;;;;;;;;;;-1.53;100.00;97082.88;10531103;28;1980;-74
2023/02/14 22:36:23;;;;;;;;;;;;;;;-1.66;100.00;97075.47;10527020;28;2046;-75
2023/02/14 22:41:26;;;;;;;;;;;;;;;-1.61;100.00;97080.25;10530357;28;2022;-75
2023/02/14 22:46:28;;;;;;;;;;;;;;;-1.61;100.00;97064.44;10533867;28;2041;-74
2023/02/14 22:51:31;;;;;;;;;;;;;;;-1.59;100.00;97072.97;10531364;28;1975;-74
2023/02/14 22:56:33;;;;;;;;;;;;;;;-1.65;100.00;97070.03;10531326;28;2211;-75
2023/02/14 23:01:36;;;;;;;;;;;;;;;-1.64;100.00;97070.88;10534669;28;1982;-73
2023/02/14 23:06:38;;;;;;;;;;;;;;;-1.84;100.00;97070.38;10529092;28;1899;-74
2023/02/14 23:11:41;;;;;;;;;;;;;;;-1.63;100.00;97073.34;10522674;28;1966;-74
2023/02/14 23:22:03;;;;;;;;;;;;;;;-2.00;100.00;97070.34;10529571;28;1903;-72
2023/02/14 23:27:05;;;;;;;;;;;;;;;-1.79;100.00;97061.94;10519833;28;1975;-76
2023/02/14 23:32:08;;;;;;;;;;;;;;;-1.76;100.00;97057.19;10534476;28;1970;-73
2023/02/14 23:37:10;;;;;;;;;;;;;;;-1.99;100.00;97056.19;10523681;28;1903;-75
2023/02/14 23:42:13;;;;;;;;;;;;;;;-2.15;100.00;97050.91;10522592;28;1949;-70
2023/02/14 23:47:15;;;;;;;;;;;;;;;-2.00;100.00;97054.53;10519137;28;2009;-70
2023/02/14 23:52:18;;;;;;;;;;;;;;;-1.97;100.00;97044.50;10500513;28;2192;-70
2023/02/14 23:57:20;;;;;;;;;;;;;;;-2.02;100.00;97040.72;10524668;28;1975;-70
